KSEP/SEP METAR and TAF weather

Enter ICAO airport designator
Station Type Date Time Source
KSEP METAR 2020/07/12 02:55 UTC NOAA

KSEP 120255Z AUTO 14006KT 10SM CLR 31/19 A2996 RMK AO2 T03050190


Station Type Date Time Source
KSEP Decoded METAR 2020/07/12 02:55 UTC NOAA

Stephenville, Clark Field Municipal Airport, TX, United States (KSEP) 32-13N 098-11W 402M
Jul 11, 2020 - 10:55 PM EDT / 2020.07.12 0255 UTC
Wind: from the SE (140 degrees) at 7 MPH (6 KT):0
Visibility: 10 mile(s):0
Sky conditions: clear
Temperature: 86.9 F (30.5 C)
Dew Point: 66.2 F (19.0 C)
Relative Humidity: 50%
Pressure (altimeter): 29.96 in. Hg (1014 hPa)
ob: KSEP 120255Z AUTO 14006KT 10SM CLR 31/19 A2996 RMK AO2 T03050190
cycle: 3

Station Type Date Time Source
KSEP TAF UTC NOAA

Error!

Example: see airport list